sensor_id;sensor_type;location;lat;lon;timestamp;temperature;humidity
2042;DHT22;1026;51.460;7.252;2023-10-13T00:00:41;16.70;99.70
2042;DHT22;1026;51.460;7.252;2023-10-13T00:03:15;16.70;99.80
2042;DHT22;1026;51.460;7.252;2023-10-13T00:05:48;16.60;99.70
2042;DHT22;1026;51.460;7.252;2023-10-13T00:08:46;16.60;99.70
2042;DHT22;1026;51.460;7.252;2023-10-13T00:11:28;16.60;99.80
2042;DHT22;1026;51.460;7.252;2023-10-13T00:14:01;16.70;99.80
2042;DHT22;1026;51.460;7.252;2023-10-13T00:16:29;16.60;99.80
2042;DHT22;1026;51.460;7.252;2023-10-13T00:19:04;16.60;99.70
2042;DHT22;1026;51.460;7.252;2023-10-13T00:21:42;16.70;99.90
2042;DHT22;1026;51.460;7.252;2023-10-13T00:24:09;16.60;99.70
2042;DHT22;1026;51.460;7.252;2023-10-13T00:26:46;16.60;99.90
2042;DHT22;1026;51.460;7.252;2023-10-13T00:29:15;16.60;99.80
2042;DHT22;1026;51.460;7.252;2023-10-13T00:31:49;16.60;99.90
2042;DHT22;1026;51.460;7.252;2023-10-13T00:34:25;16.60;99.80
2042;DHT22;1026;51.460;7.252;2023-10-13T00:37:09;16.60;99.80
2042;DHT22;1026;51.460;7.252;2023-10-13T00:39:50;16.60;99.80
2042;DHT22;1026;51.460;7.252;2023-10-13T00:42:37;16.60;99.80
2042;DHT22;1026;51.460;7.252;2023-10-13T00:45:24;16.60;99.80
2042;DHT22;1026;51.460;7.252;2023-10-13T00:47:53;16.60;99.90
2042;DHT22;1026;51.460;7.252;2023-10-13T00:50:37;16.60;99.80
2042;DHT22;1026;51.460;7.252;2023-10-13T00:53:20;16.60;99.90
2042;DHT22;1026;51.460;7.252;2023-10-13T00:55:54;16.60;99.80
2042;DHT22;1026;51.460;7.252;2023-10-13T00:58:23;16.60;99.90
2042;DHT22;1026;51.460;7.252;2023-10-13T01:00:52;16.60;99.80
2042;DHT22;1026;51.460;7.252;2023-10-13T01:03:52;16.60;99.90
2042;DHT22;1026;51.460;7.252;2023-10-13T01:06:29;16.60;99.90
2042;DHT22;1026;51.460;7.252;2023-10-13T01:09:09;16.60;99.90
2042;DHT22;1026;51.460;7.252;2023-10-13T01:11:58;16.60;99.90
2042;DHT22;1026;51.460;7.252;2023-10-13T01:14:33;16.60;99.90
2042;DHT22;1026;51.460;7.252;2023-10-13T01:17:02;16.60;99.90
2042;DHT22;1026;51.460;7.252;2023-10-13T01:19:37;16.60;99.90
2042;DHT22;1026;51.460;7.252;2023-10-13T01:22:12;16.60;99.90
2042;DHT22;1026;51.460;7.252;2023-10-13T01:24:45;16.60;99.90
2042;DHT22;1026;51.460;7.252;2023-10-13T01:27:12;16.60;99.90
2042;DHT22;1026;51.460;7.252;2023-10-13T01:29:53;16.60;99.90
2042;DHT22;1026;51.460;7.252;2023-10-13T01:32:25;16.60;99.90
2042;DHT22;1026;51.460;7.252;2023-10-13T01:34:53;16.60;99.90
2042;DHT22;1026;51.460;7.252;2023-10-13T01:37:30;16.60;99.90
2042;DHT22;1026;51.460;7.252;2023-10-13T01:39:57;16.60;99.90
2042;DHT22;1026;51.460;7.252;2023-10-13T01:42:24;16.60;99.90
2042;DHT22;1026;51.460;7.252;2023-10-13T01:44:58;16.60;99.90
2042;DHT22;1026;51.460;7.252;2023-10-13T01:47:32;16.60;99.90
2042;DHT22;1026;51.460;7.252;2023-10-13T01:50:13;16.60;99.90
2042;DHT22;1026;51.460;7.252;2023-10-13T01:53:05;16.60;99.90
2042;DHT22;1026;51.460;7.252;2023-10-13T01:55:55;16.60;99.90
2042;DHT22;1026;51.460;7.252;2023-10-13T01:58:24;16.60;99.90
2042;DHT22;1026;51.460;7.252;2023-10-13T02:00:59;16.60;99.90
2042;DHT22;1026;51.460;7.252;2023-10-13T02:03:27;16.60;99.90
2042;DHT22;1026;51.460;7.252;2023-10-13T02:06:03;16.60;99.90
2042;DHT22;1026;51.460;7.252;2023-10-13T02:08:31;16.60;99.90
2042;DHT22;1026;51.460;7.252;2023-10-13T02:11:04;16.60;99.90
2042;DHT22;1026;51.460;7.252;2023-10-13T02:13:34;16.60;99.90
2042;DHT22;1026;51.460;7.252;2023-10-13T02:16:35;16.60;99.90
2042;DHT22;1026;51.460;7.252;2023-10-13T02:19:09;16.60;99.90
2042;DHT22;1026;51.460;7.252;2023-10-13T02:21:48;16.60;99.90
2042;DHT22;1026;51.460;7.252;2023-10-13T02:24:25;16.60;99.90
2042;DHT22;1026;51.460;7.252;2023-10-13T02:27:02;16.60;99.90
2042;DHT22;1026;51.460;7.252;2023-10-13T02:29:31;16.60;99.90
2042;DHT22;1026;51.460;7.252;2023-10-13T02:32:11;16.60;99.90
2042;DHT22;1026;51.460;7.252;2023-10-13T02:35:03;16.60;99.90
2042;DHT22;1026;51.460;7.252;2023-10-13T02:37:40;16.60;99.90
2042;DHT22;1026;51.460;7.252;2023-10-13T02:40:11;16.60;99.90
2042;DHT22;1026;51.460;7.252;2023-10-13T02:42:45;16.60;99.90
2042;DHT22;1026;51.460;7.252;2023-10-13T02:45:12;16.60;99.90
2042;DHT22;1026;51.460;7.252;2023-10-13T02:47:46;16.60;99.90
2042;DHT22;1026;51.460;7.252;2023-10-13T02:51:01;16.60;99.90
2042;DHT22;1026;51.460;7.252;2023-10-13T02:53:46;16.60;99.90
2042;DHT22;1026;51.460;7.252;2023-10-13T02:56:25;16.60;99.90
2042;DHT22;1026;51.460;7.252;2023-10-13T02:58:53;16.60;99.90
2042;DHT22;1026;51.460;7.252;2023-10-13T03:01:26;16.60;99.90
2042;DHT22;1026;51.460;7.252;2023-10-13T03:04:03;16.60;99.90
2042;DHT22;1026;51.460;7.252;2023-10-13T03:06:30;16.60;99.90
2042;DHT22;1026;51.460;7.252;2023-10-13T03:09:10;16.60;99.90
2042;DHT22;1026;51.460;7.252;2023-10-13T03:11:42;16.60;99.90
2042;DHT22;1026;51.460;7.252;2023-10-13T03:14:22;16.60;99.90
2042;DHT22;1026;51.460;7.252;2023-10-13T03:17:00;16.60;99.90
2042;DHT22;1026;51.460;7.252;2023-10-13T03:19:45;16.60;99.90
2042;DHT22;1026;51.460;7.252;2023-10-13T03:22:18;16.60;99.90
2042;DHT22;1026;51.460;7.252;2023-10-13T03:24:51;16.60;99.90
2042;DHT22;1026;51.460;7.252;2023-10-13T03:27:26;16.60;99.90
2042;DHT22;1026;51.460;7.252;2023-10-13T03:30:17;16.60;99.90
2042;DHT22;1026;51.460;7.252;2023-10-13T03:32:50;16.60;99.90
2042;DHT22;1026;51.460;7.252;2023-10-13T03:35:29;16.60;99.90
2042;DHT22;1026;51.460;7.252;2023-10-13T03:38:04;16.60;99.90
2042;DHT22;1026;51.460;7.252;2023-10-13T03:40:58;16.60;99.90
2042;DHT22;1026;51.460;7.252;2023-10-13T03:43:35;16.60;99.90
2042;DHT22;1026;51.460;7.252;2023-10-13T03:46:50;16.60;99.90
2042;DHT22;1026;51.460;7.252;2023-10-13T03:49:20;16.60;99.90
2042;DHT22;1026;51.460;7.252;2023-10-13T03:51:58;16.60;99.90
2042;DHT22;1026;51.460;7.252;2023-10-13T03:54:31;16.60;99.90
2042;DHT22;1026;51.460;7.252;2023-10-13T03:57:14;16.60;99.90
2042;DHT22;1026;51.460;7.252;2023-10-13T03:59:49;16.60;99.90
2042;DHT22;1026;51.460;7.252;2023-10-13T04:02:16;16.60;99.90
2042;DHT22;1026;51.460;7.252;2023-10-13T04:04:47;16.60;99.90
2042;DHT22;1026;51.460;7.252;2023-10-13T04:07:27;16.60;99.90
2042;DHT22;1026;51.460;7.252;2023-10-13T04:10:14;16.60;99.90
2042;DHT22;1026;51.460;7.252;2023-10-13T04:13:08;16.60;99.90
2042;DHT22;1026;51.460;7.252;2023-10-13T04:16:10;16.60;99.90
2042;DHT22;1026;51.460;7.252;2023-10-13T04:19:16;16.60;99.90
2042;DHT22;1026;51.460;7.252;2023-10-13T04:21:55;16.60;99.90
2042;DHT22;1026;51.460;7.252;2023-10-13T04:24:26;16.60;99.90
2042;DHT22;1026;51.460;7.252;2023-10-13T04:27:29;16.60;99.90
2042;DHT22;1026;51.460;7.252;2023-10-13T04:30:07;16.60;99.90
2042;DHT22;1026;51.460;7.252;2023-10-13T04:33:02;16.60;99.90
2042;DHT22;1026;51.460;7.252;2023-10-13T04:36:08;16.60;99.90
2042;DHT22;1026;51.460;7.252;2023-10-13T04:39:20;16.60;99.90
2042;DHT22;1026;51.460;7.252;2023-10-13T04:41:56;16.60;99.90
2042;DHT22;1026;51.460;7.252;2023-10-13T04:44:46;16.60;99.90
2042;DHT22;1026;51.460;7.252;2023-10-13T04:47:16;16.60;99.90
2042;DHT22;1026;51.460;7.252;2023-10-13T04:49:54;16.60;99.90
2042;DHT22;1026;51.460;7.252;2023-10-13T04:52:27;16.60;99.90
2042;DHT22;1026;51.460;7.252;2023-10-13T04:55:34;16.60;99.90
2042;DHT22;1026;51.460;7.252;2023-10-13T04:58:23;16.60;99.90
2042;DHT22;1026;51.460;7.252;2023-10-13T05:01:26;16.60;99.90
2042;DHT22;1026;51.460;7.252;2023-10-13T05:04:02;16.60;99.90
2042;DHT22;1026;51.460;7.252;2023-10-13T05:07:16;16.60;99.90
2042;DHT22;1026;51.460;7.252;2023-10-13T05:10:29;16.60;99.90
2042;DHT22;1026;51.460;7.252;2023-10-13T05:13:20;16.60;99.90
2042;DHT22;1026;51.460;7.252;2023-10-13T05:16:24;16.60;99.90
2042;DHT22;1026;51.460;7.252;2023-10-13T05:19:10;16.60;99.90
2042;DHT22;1026;51.460;7.252;2023-10-13T05:22:01;16.60;99.90
2042;DHT22;1026;51.460;7.252;2023-10-13T05:24:53;16.60;99.90
2042;DHT22;1026;51.460;7.252;2023-10-13T05:27:39;16.60;99.90
2042;DHT22;1026;51.460;7.252;2023-10-13T05:30:33;16.60;99.90
2042;DHT22;1026;51.460;7.252;2023-10-13T05:33:18;16.60;99.90
2042;DHT22;1026;51.460;7.252;2023-10-13T05:36:11;16.60;99.90
2042;DHT22;1026;51.460;7.252;2023-10-13T05:38:57;16.60;99.90
2042;DHT22;1026;51.460;7.252;2023-10-13T05:41:49;16.60;99.90
2042;DHT22;1026;51.460;7.252;2023-10-13T05:44:34;16.60;99.90
2042;DHT22;1026;51.460;7.252;2023-10-13T05:47:31;16.60;99.90
2042;DHT22;1026;51.460;7.252;2023-10-13T05:50:48;16.60;99.90
2042;DHT22;1026;51.460;7.252;2023-10-13T05:53:44;16.60;99.90
2042;DHT22;1026;51.460;7.252;2023-10-13T05:56:48;16.60;99.90
2042;DHT22;1026;51.460;7.252;2023-10-13T06:00:02;16.60;99.90
2042;DHT22;1026;51.460;7.252;2023-10-13T06:02:54;16.60;99.90
2042;DHT22;1026;51.460;7.252;2023-10-13T06:05:48;16.60;99.90
2042;DHT22;1026;51.460;7.252;2023-10-13T06:08:39;16.60;99.90
2042;DHT22;1026;51.460;7.252;2023-10-13T06:11:25;16.60;99.90
2042;DHT22;1026;51.460;7.252;2023-10-13T06:14:17;16.60;99.90
2042;DHT22;1026;51.460;7.252;2023-10-13T06:17:09;16.60;99.90
2042;DHT22;1026;51.460;7.252;2023-10-13T06:20:19;16.60;99.90
2042;DHT22;1026;51.460;7.252;2023-10-13T06:23:10;16.60;99.90
2042;DHT22;1026;51.460;7.252;2023-10-13T06:25:56;16.60;99.90
2042;DHT22;1026;51.460;7.252;2023-10-13T06:28:48;16.60;99.90
2042;DHT22;1026;51.460;7.252;2023-10-13T06:31:22;16.60;99.90
2042;DHT22;1026;51.460;7.252;2023-10-13T06:33:50;16.60;99.90
2042;DHT22;1026;51.460;7.252;2023-10-13T06:36:17;16.60;99.90
2042;DHT22;1026;51.460;7.252;2023-10-13T06:38:51;16.60;99.90
2042;DHT22;1026;51.460;7.252;2023-10-13T06:41:51;16.60;99.90
2042;DHT22;1026;51.460;7.252;2023-10-13T06:44:24;16.60;99.90
2042;DHT22;1026;51.460;7.252;2023-10-13T06:46:58;16.70;99.90
2042;DHT22;1026;51.460;7.252;2023-10-13T06:49:31;16.60;99.90
2042;DHT22;1026;51.460;7.252;2023-10-13T06:52:06;16.60;99.90
2042;DHT22;1026;51.460;7.252;2023-10-13T06:54:46;16.70;99.90
2042;DHT22;1026;51.460;7.252;2023-10-13T06:57:21;16.70;99.90
2042;DHT22;1026;51.460;7.252;2023-10-13T06:59:58;16.70;99.90
2042;DHT22;1026;51.460;7.252;2023-10-13T07:02:31;16.70;99.90
2042;DHT22;1026;51.460;7.252;2023-10-13T07:05:00;16.60;99.90
2042;DHT22;1026;51.460;7.252;2023-10-13T07:07:41;16.70;99.90
2042;DHT22;1026;51.460;7.252;2023-10-13T07:10:09;16.70;99.90
2042;DHT22;1026;51.460;7.252;2023-10-13T07:12:41;16.70;99.90
2042;DHT22;1026;51.460;7.252;2023-10-13T07:15:38;16.70;99.90
2042;DHT22;1026;51.460;7.252;2023-10-13T07:18:15;16.70;99.90
2042;DHT22;1026;51.460;7.252;2023-10-13T07:20:51;16.70;99.90
2042;DHT22;1026;51.460;7.252;2023-10-13T07:23:17;16.70;99.90
2042;DHT22;1026;51.460;7.252;2023-10-13T07:25:57;16.70;99.90
2042;DHT22;1026;51.460;7.252;2023-10-13T07:28:30;16.70;99.90
2042;DHT22;1026;51.460;7.252;2023-10-13T07:31:03;16.70;99.90
2042;DHT22;1026;51.460;7.252;2023-10-13T07:33:39;16.70;99.90
2042;DHT22;1026;51.460;7.252;2023-10-13T07:36:13;16.70;99.90
2042;DHT22;1026;51.460;7.252;2023-10-13T07:39:11;16.70;99.90
2042;DHT22;1026;51.460;7.252;2023-10-13T07:42:13;16.80;99.90
2042;DHT22;1026;51.460;7.252;2023-10-13T07:44:46;16.80;99.90
2042;DHT22;1026;51.460;7.252;2023-10-13T07:47:19;16.80;99.90
2042;DHT22;1026;51.460;7.252;2023-10-13T07:49:47;16.70;99.90
2042;DHT22;1026;51.460;7.252;2023-10-13T07:52:17;16.80;99.90
2042;DHT22;1026;51.460;7.252;2023-10-13T07:55:08;16.80;99.90
2042;DHT22;1026;51.460;7.252;2023-10-13T07:58:05;16.80;99.90
2042;DHT22;1026;51.460;7.252;2023-10-13T08:01:01;16.80;99.90
2042;DHT22;1026;51.460;7.252;2023-10-13T08:03:48;16.80;99.90
2042;DHT22;1026;51.460;7.252;2023-10-13T08:06:30;16.80;99.90
2042;DHT22;1026;51.460;7.252;2023-10-13T08:08:57;16.80;99.90
2042;DHT22;1026;51.460;7.252;2023-10-13T08:11:58;16.80;99.90
2042;DHT22;1026;51.460;7.252;2023-10-13T08:14:33;16.90;99.90
2042;DHT22;1026;51.460;7.252;2023-10-13T08:17:08;16.80;99.90
2042;DHT22;1026;51.460;7.252;2023-10-13T08:19:44;16.80;99.90
2042;DHT22;1026;51.460;7.252;2023-10-13T08:22:13;16.90;99.90
2042;DHT22;1026;51.460;7.252;2023-10-13T08:25:13;16.90;99.90
2042;DHT22;1026;51.460;7.252;2023-10-13T08:28:12;16.90;99.90
2042;DHT22;1026;51.460;7.252;2023-10-13T08:31:23;16.90;99.90
2042;DHT22;1026;51.460;7.252;2023-10-13T08:33:53;16.90;99.90
2042;DHT22;1026;51.460;7.252;2023-10-13T08:36:42;16.90;99.90
2042;DHT22;1026;51.460;7.252;2023-10-13T08:39:08;16.90;99.90
2042;DHT22;1026;51.460;7.252;2023-10-13T08:42:01;16.90;99.90
2042;DHT22;1026;51.460;7.252;2023-10-13T08:44:47;16.90;99.90
2042;DHT22;1026;51.460;7.252;2023-10-13T08:47:19;16.90;99.90
2042;DHT22;1026;51.460;7.252;2023-10-13T08:49:58;17.00;99.90
2042;DHT22;1026;51.460;7.252;2023-10-13T08:52:51;16.90;99.90
2042;DHT22;1026;51.460;7.252;2023-10-13T08:55:30;16.90;99.90
2042;DHT22;1026;51.460;7.252;2023-10-13T08:58:06;17.00;99.90
2042;DHT22;1026;51.460;7.252;2023-10-13T09:00:54;16.90;99.90
2042;DHT22;1026;51.460;7.252;2023-10-13T09:03:45;17.00;99.90
2042;DHT22;1026;51.460;7.252;2023-10-13T09:06:23;17.00;99.90
2042;DHT22;1026;51.460;7.252;2023-10-13T09:08:52;17.00;99.90
2042;DHT22;1026;51.460;7.252;2023-10-13T09:11:39;17.00;99.90
2042;DHT22;1026;51.460;7.252;2023-10-13T09:14:16;17.00;99.90
2042;DHT22;1026;51.460;7.252;2023-10-13T09:17:12;17.00;99.90
2042;DHT22;1026;51.460;7.252;2023-10-13T09:19:50;17.10;99.90
2042;DHT22;1026;51.460;7.252;2023-10-13T09:22:29;17.00;99.90
2042;DHT22;1026;51.460;7.252;2023-10-13T09:25:03;17.10;99.90
2042;DHT22;1026;51.460;7.252;2023-10-13T09:27:48;17.10;99.90
2042;DHT22;1026;51.460;7.252;2023-10-13T09:30:18;17.00;99.90
2042;DHT22;1026;51.460;7.252;2023-10-13T09:33:01;17.10;99.90
2042;DHT22;1026;51.460;7.252;2023-10-13T09:35:29;17.10;99.90
2042;DHT22;1026;51.460;7.252;2023-10-13T09:38:07;17.10;99.90
2042;DHT22;1026;51.460;7.252;2023-10-13T09:40:37;17.10;99.90
2042;DHT22;1026;51.460;7.252;2023-10-13T09:43:11;17.20;99.90
2042;DHT22;1026;51.460;7.252;2023-10-13T09:45:49;17.40;99.90
2042;DHT22;1026;51.460;7.252;2023-10-13T09:48:49;17.30;99.90
2042;DHT22;1026;51.460;7.252;2023-10-13T09:51:37;17.30;99.90
2042;DHT22;1026;51.460;7.252;2023-10-13T09:54:22;17.30;99.90
2042;DHT22;1026;51.460;7.252;2023-10-13T09:57:10;17.20;99.90
2042;DHT22;1026;51.460;7.252;2023-10-13T10:00:49;17.20;99.90
2042;DHT22;1026;51.460;7.252;2023-10-13T10:04:05;17.30;99.90
2042;DHT22;1026;51.460;7.252;2023-10-13T10:07:03;17.30;99.90
2042;DHT22;1026;51.460;7.252;2023-10-13T10:09:37;17.30;99.90
2042;DHT22;1026;51.460;7.252;2023-10-13T10:13:01;17.30;99.90
2042;DHT22;1026;51.460;7.252;2023-10-13T10:15:38;17.30;99.90
2042;DHT22;1026;51.460;7.252;2023-10-13T10:18:23;17.30;99.90
2042;DHT22;1026;51.460;7.252;2023-10-13T10:21:04;17.30;99.90
2042;DHT22;1026;51.460;7.252;2023-10-13T10:23:37;17.30;99.90
2042;DHT22;1026;51.460;7.252;2023-10-13T10:26:25;17.30;99.90
2042;DHT22;1026;51.460;7.252;2023-10-13T10:28:52;17.30;99.90
2042;DHT22;1026;51.460;7.252;2023-10-13T10:31:33;17.40;99.90
2042;DHT22;1026;51.460;7.252;2023-10-13T10:34:32;17.30;99.90
2042;DHT22;1026;51.460;7.252;2023-10-13T10:37:06;17.40;99.90
2042;DHT22;1026;51.460;7.252;2023-10-13T10:39:42;17.40;99.90
2042;DHT22;1026;51.460;7.252;2023-10-13T10:42:19;17.40;99.90
2042;DHT22;1026;51.460;7.252;2023-10-13T10:44:56;17.40;99.90
2042;DHT22;1026;51.460;7.252;2023-10-13T10:47:25;17.40;99.90
2042;DHT22;1026;51.460;7.252;2023-10-13T10:50:05;17.40;99.90
2042;DHT22;1026;51.460;7.252;2023-10-13T10:52:46;17.40;99.90
2042;DHT22;1026;51.460;7.252;2023-10-13T10:55:20;17.50;99.90
2042;DHT22;1026;51.460;7.252;2023-10-13T10:58:07;17.50;99.90
2042;DHT22;1026;51.460;7.252;2023-10-13T11:01:25;17.50;99.90
2042;DHT22;1026;51.460;7.252;2023-10-13T11:04:08;17.50;99.90
2042;DHT22;1026;51.460;7.252;2023-10-13T11:06:53;17.60;99.90
2042;DHT22;1026;51.460;7.252;2023-10-13T11:09:33;17.60;99.90
2042;DHT22;1026;51.460;7.252;2023-10-13T11:12:14;17.60;99.90
2042;DHT22;1026;51.460;7.252;2023-10-13T11:15:05;17.60;99.90
2042;DHT22;1026;51.460;7.252;2023-10-13T11:17:49;17.60;99.90
2042;DHT22;1026;51.460;7.252;2023-10-13T11:20:43;17.70;99.90
2042;DHT22;1026;51.460;7.252;2023-10-13T11:23:15;17.70;99.90
2042;DHT22;1026;51.460;7.252;2023-10-13T11:25:56;17.70;99.90
2042;DHT22;1026;51.460;7.252;2023-10-13T11:28:23;17.70;99.90
2042;DHT22;1026;51.460;7.252;2023-10-13T11:31:11;17.80;99.90
2042;DHT22;1026;51.460;7.252;2023-10-13T11:33:43;17.80;99.90
2042;DHT22;1026;51.460;7.252;2023-10-13T11:36:20;17.80;99.90
2042;DHT22;1026;51.460;7.252;2023-10-13T11:38:53;17.80;99.90
2042;DHT22;1026;51.460;7.252;2023-10-13T11:41:31;17.80;99.90
2042;DHT22;1026;51.460;7.252;2023-10-13T11:44:11;17.90;99.90
2042;DHT22;1026;51.460;7.252;2023-10-13T11:47:05;17.90;99.90
2042;DHT22;1026;51.460;7.252;2023-10-13T11:50:01;17.90;99.90
2042;DHT22;1026;51.460;7.252;2023-10-13T11:52:37;17.90;99.90
2042;DHT22;1026;51.460;7.252;2023-10-13T11:55:11;17.90;99.90
2042;DHT22;1026;51.460;7.252;2023-10-13T11:57:38;17.90;99.90
2042;DHT22;1026;51.460;7.252;2023-10-13T12:00:05;17.90;99.90
2042;DHT22;1026;51.460;7.252;2023-10-13T12:03:11;17.90;99.90
2042;DHT22;1026;51.460;7.252;2023-10-13T12:06:03;18.00;99.90
2042;DHT22;1026;51.460;7.252;2023-10-13T12:08:52;18.00;99.90
2042;DHT22;1026;51.460;7.252;2023-10-13T12:11:26;18.00;99.90
2042;DHT22;1026;51.460;7.252;2023-10-13T12:14:05;18.00;99.90
2042;DHT22;1026;51.460;7.252;2023-10-13T12:16:49;18.00;99.90
2042;DHT22;1026;51.460;7.252;2023-10-13T12:19:26;18.00;99.90
2042;DHT22;1026;51.460;7.252;2023-10-13T12:21:57;18.10;99.90
2042;DHT22;1026;51.460;7.252;2023-10-13T12:24:37;18.10;99.90
2042;DHT22;1026;51.460;7.252;2023-10-13T12:28:12;18.10;99.90
2042;DHT22;1026;51.460;7.252;2023-10-13T12:30:51;18.20;99.90
2042;DHT22;1026;51.460;7.252;2023-10-13T12:33:48;18.10;99.90
2042;DHT22;1026;51.460;7.252;2023-10-13T12:36:15;18.20;99.90
2042;DHT22;1026;51.460;7.252;2023-10-13T12:39:15;18.20;99.90
2042;DHT22;1026;51.460;7.252;2023-10-13T12:42:00;18.20;99.90
2042;DHT22;1026;51.460;7.252;2023-10-13T12:44:52;18.30;99.90
2042;DHT22;1026;51.460;7.252;2023-10-13T12:47:44;18.30;99.90
2042;DHT22;1026;51.460;7.252;2023-10-13T12:50:30;18.30;99.90
2042;DHT22;1026;51.460;7.252;2023-10-13T12:53:17;18.30;99.90
2042;DHT22;1026;51.460;7.252;2023-10-13T12:56:29;18.30;99.90
2042;DHT22;1026;51.460;7.252;2023-10-13T12:59:14;18.30;99.90
2042;DHT22;1026;51.460;7.252;2023-10-13T13:01:41;18.40;99.90
2042;DHT22;1026;51.460;7.252;2023-10-13T13:04:12;18.40;99.90
2042;DHT22;1026;51.460;7.252;2023-10-13T13:07:06;18.40;99.90
2042;DHT22;1026;51.460;7.252;2023-10-13T13:09:40;18.40;99.80
2042;DHT22;1026;51.460;7.252;2023-10-13T13:12:14;18.40;99.80
2042;DHT22;1026;51.460;7.252;2023-10-13T13:14:41;18.40;99.80
2042;DHT22;1026;51.460;7.252;2023-10-13T13:17:13;18.40;99.80
2042;DHT22;1026;51.460;7.252;2023-10-13T13:19:46;18.40;99.70
2042;DHT22;1026;51.460;7.252;2023-10-13T13:22:13;18.50;99.70
2042;DHT22;1026;51.460;7.252;2023-10-13T13:24:55;18.50;99.60
2042;DHT22;1026;51.460;7.252;2023-10-13T13:27:29;18.50;99.60
2042;DHT22;1026;51.460;7.252;2023-10-13T13:29:57;18.50;99.60
2042;DHT22;1026;51.460;7.252;2023-10-13T13:32:24;18.50;99.60
2042;DHT22;1026;51.460;7.252;2023-10-13T13:34:57;18.50;99.60
2042;DHT22;1026;51.460;7.252;2023-10-13T13:37:52;18.50;99.50
2042;DHT22;1026;51.460;7.252;2023-10-13T13:40:52;18.50;99.50
2042;DHT22;1026;51.460;7.252;2023-10-13T13:43:27;18.50;99.50
2042;DHT22;1026;51.460;7.252;2023-10-13T13:46:35;18.50;99.50
2042;DHT22;1026;51.460;7.252;2023-10-13T13:49:14;18.60;99.50
2042;DHT22;1026;51.460;7.252;2023-10-13T13:52:14;18.60;99.40
2042;DHT22;1026;51.460;7.252;2023-10-13T13:54:54;19.10;98.10
2042;DHT22;1026;51.460;7.252;2023-10-13T13:57:29;19.70;96.50
2042;DHT22;1026;51.460;7.252;2023-10-13T14:00:03;20.10;95.10
2042;DHT22;1026;51.460;7.252;2023-10-13T14:02:33;20.20;94.50
2042;DHT22;1026;51.460;7.252;2023-10-13T14:05:08;20.00;94.90
2042;DHT22;1026;51.460;7.252;2023-10-13T14:07:45;19.60;95.70
2042;DHT22;1026;51.460;7.252;2023-10-13T14:10:29;19.30;96.50
2042;DHT22;1026;51.460;7.252;2023-10-13T14:13:00;19.10;97.00
2042;DHT22;1026;51.460;7.252;2023-10-13T14:15:46;19.00;97.30
2042;DHT22;1026;51.460;7.252;2023-10-13T14:18:19;19.00;97.50
2042;DHT22;1026;51.460;7.252;2023-10-13T14:20:46;18.90;97.60
2042;DHT22;1026;51.460;7.252;2023-10-13T14:23:12;18.90;97.70
2042;DHT22;1026;51.460;7.252;2023-10-13T14:25:46;18.90;97.80
2042;DHT22;1026;51.460;7.252;2023-10-13T14:28:13;18.90;97.80
2042;DHT22;1026;51.460;7.252;2023-10-13T14:30:51;18.90;97.90
2042;DHT22;1026;51.460;7.252;2023-10-13T14:33:18;18.90;97.90
2042;DHT22;1026;51.460;7.252;2023-10-13T14:35:45;18.90;97.90
2042;DHT22;1026;51.460;7.252;2023-10-13T14:38:20;18.90;97.90
2042;DHT22;1026;51.460;7.252;2023-10-13T14:40:56;18.90;97.90
2042;DHT22;1026;51.460;7.252;2023-10-13T14:43:24;18.90;97.90
2042;DHT22;1026;51.460;7.252;2023-10-13T14:46:01;18.90;97.90
2042;DHT22;1026;51.460;7.252;2023-10-13T14:48:34;18.90;98.00
2042;DHT22;1026;51.460;7.252;2023-10-13T14:51:11;18.90;98.00
2042;DHT22;1026;51.460;7.252;2023-10-13T14:53:57;18.90;98.00
2042;DHT22;1026;51.460;7.252;2023-10-13T14:56:38;18.90;98.00
2042;DHT22;1026;51.460;7.252;2023-10-13T14:59:15;18.90;98.10
2042;DHT22;1026;51.460;7.252;2023-10-13T15:01:44;18.90;98.20
2042;DHT22;1026;51.460;7.252;2023-10-13T15:04:18;18.90;98.10
2042;DHT22;1026;51.460;7.252;2023-10-13T15:06:55;18.90;98.00
2042;DHT22;1026;51.460;7.252;2023-10-13T15:09:29;18.90;98.20
2042;DHT22;1026;51.460;7.252;2023-10-13T15:11:56;18.90;98.00
2042;DHT22;1026;51.460;7.252;2023-10-13T15:14:30;18.90;98.20
2042;DHT22;1026;51.460;7.252;2023-10-13T15:17:06;18.90;97.90
2042;DHT22;1026;51.460;7.252;2023-10-13T15:19:33;18.90;97.80
2042;DHT22;1026;51.460;7.252;2023-10-13T15:22:05;18.90;98.00
2042;DHT22;1026;51.460;7.252;2023-10-13T15:24:39;18.90;98.00
2042;DHT22;1026;51.460;7.252;2023-10-13T15:27:24;18.90;98.00
2042;DHT22;1026;51.460;7.252;2023-10-13T15:29:57;18.90;97.90
2042;DHT22;1026;51.460;7.252;2023-10-13T15:32:32;18.90;98.00
2042;DHT22;1026;51.460;7.252;2023-10-13T15:35:08;18.90;97.90
2042;DHT22;1026;51.460;7.252;2023-10-13T15:37:45;18.90;98.00
2042;DHT22;1026;51.460;7.252;2023-10-13T15:40:15;18.90;97.60
2042;DHT22;1026;51.460;7.252;2023-10-13T15:42:43;18.90;97.60
2042;DHT22;1026;51.460;7.252;2023-10-13T15:45:18;18.90;97.90
2042;DHT22;1026;51.460;7.252;2023-10-13T15:47:46;18.90;97.80
2042;DHT22;1026;51.460;7.252;2023-10-13T15:50:22;18.90;97.60
2042;DHT22;1026;51.460;7.252;2023-10-13T15:52:56;18.90;97.90
2042;DHT22;1026;51.460;7.252;2023-10-13T15:55:29;18.90;97.80
2042;DHT22;1026;51.460;7.252;2023-10-13T15:58:01;18.90;97.80
2042;DHT22;1026;51.460;7.252;2023-10-13T16:00:35;18.90;98.20
2042;DHT22;1026;51.460;7.252;2023-10-13T16:03:09;18.90;97.30
2042;DHT22;1026;51.460;7.252;2023-10-13T16:05:39;18.90;97.40
2042;DHT22;1026;51.460;7.252;2023-10-13T16:08:16;18.90;97.70
2042;DHT22;1026;51.460;7.252;2023-10-13T16:10:45;18.90;97.50
2042;DHT22;1026;51.460;7.252;2023-10-13T16:13:12;18.90;97.70
2042;DHT22;1026;51.460;7.252;2023-10-13T16:15:48;18.90;97.40
2042;DHT22;1026;51.460;7.252;2023-10-13T16:18:21;18.90;97.40
2042;DHT22;1026;51.460;7.252;2023-10-13T16:20:49;18.90;97.30
2042;DHT22;1026;51.460;7.252;2023-10-13T16:23:17;18.90;97.30
2042;DHT22;1026;51.460;7.252;2023-10-13T16:25:52;18.90;97.70
2042;DHT22;1026;51.460;7.252;2023-10-13T16:28:25;18.90;97.40
2042;DHT22;1026;51.460;7.252;2023-10-13T16:30:59;18.90;97.60
2042;DHT22;1026;51.460;7.252;2023-10-13T16:33:26;18.90;97.50
2042;DHT22;1026;51.460;7.252;2023-10-13T16:35:55;18.90;97.40
2042;DHT22;1026;51.460;7.252;2023-10-13T16:38:30;18.90;97.40
2042;DHT22;1026;51.460;7.252;2023-10-13T16:40:57;18.90;97.40
2042;DHT22;1026;51.460;7.252;2023-10-13T16:43:24;18.90;97.40
2042;DHT22;1026;51.460;7.252;2023-10-13T16:45:58;18.90;97.50
2042;DHT22;1026;51.460;7.252;2023-10-13T16:48:25;18.90;97.40
2042;DHT22;1026;51.460;7.252;2023-10-13T16:50:53;18.90;97.50
2042;DHT22;1026;51.460;7.252;2023-10-13T16:53:30;18.90;97.50
2042;DHT22;1026;51.460;7.252;2023-10-13T16:56:04;18.90;97.70
2042;DHT22;1026;51.460;7.252;2023-10-13T16:58:38;18.90;97.70
2042;DHT22;1026;51.460;7.252;2023-10-13T17:01:16;18.90;97.20
2042;DHT22;1026;51.460;7.252;2023-10-13T17:03:50;18.90;97.40
2042;DHT22;1026;51.460;7.252;2023-10-13T17:06:18;18.90;97.80
2042;DHT22;1026;51.460;7.252;2023-10-13T17:08:52;18.90;97.70
2042;DHT22;1026;51.460;7.252;2023-10-13T17:11:19;18.80;97.60
2042;DHT22;1026;51.460;7.252;2023-10-13T17:13:47;18.80;97.50
2042;DHT22;1026;51.460;7.252;2023-10-13T17:16:22;18.80;97.50
2042;DHT22;1026;51.460;7.252;2023-10-13T17:18:51;18.80;97.50
2042;DHT22;1026;51.460;7.252;2023-10-13T17:21:25;18.80;97.60
2042;DHT22;1026;51.460;7.252;2023-10-13T17:24:01;18.80;97.60
2042;DHT22;1026;51.460;7.252;2023-10-13T17:26:34;18.80;97.70